Time;durP1;ratioP1;P1;durP2;ratioP2;P2;SDS_P1;SDS_P2;PMS_P1;PMS_P2;Temp;Humidity;BMP_temperature;BMP_pressure;BME280_temperature;BME280_humidity;BME280_pressure;Samples;Min_cycle;Max_cycle;Signal;HPM_P1;HPM_P2
2023/01/14 00:01:18;;;;;;;9.32;1.58;;;;;;;;;;5092466;28;20054;-88
2023/01/14 00:03:45;;;;;;;6.40;1.38;;;;;;;;;;5092826;28;20052;-88
2023/01/14 00:06:14;;;;;;;6.28;1.38;;;;;;;;;;5092718;28;20084;-88
2023/01/14 00:08:41;;;;;;;5.45;1.63;;;;;;;;;;5092946;28;20040;-88
2023/01/14 00:11:10;;;;;;;3.08;0.80;;;;;;;;;;5092835;28;20052;-87
2023/01/14 00:13:38;;;;;;;10.02;1.20;;;;;;;;;;5092647;28;20048;-88
2023/01/14 00:16:06;;;;;;;4.07;0.90;;;;;;;;;;5092296;28;20067;-88
2023/01/14 00:18:34;;;;;;;4.82;1.30;;;;;;;;;;5092474;28;20385;-87
2023/01/14 00:21:03;;;;;;;4.07;1.00;;;;;;;;;;5093644;28;20044;-88
2023/01/14 00:23:30;;;;;;;4.45;1.00;;;;;;;;;;5092564;28;20052;-87
2023/01/14 00:26:05;;;;;;;4.82;0.80;;;;;;;;;;5093470;28;20087;-88
2023/01/14 00:28:32;;;;;;;2.85;0.88;;;;;;;;;;5092475;28;20492;-87
2023/01/14 00:31:08;;;;;;;4.15;0.90;;;;;;;;;;5093245;28;20131;-87
2023/01/14 00:33:36;;;;;;;4.18;0.93;;;;;;;;;;5092762;28;20082;-88
2023/01/14 00:36:03;;;;;;;4.38;0.70;;;;;;;;;;5092799;28;20150;-88
2023/01/14 00:38:31;;;;;;;3.47;1.00;;;;;;;;;;5092543;28;20056;-88
2023/01/14 00:41:12;;;;;;;4.10;1.00;;;;;;;;;;5092672;28;20071;-85
2023/01/14 00:43:40;;;;;;;2.55;0.80;;;;;;;;;;5092340;28;20056;-87
2023/01/14 00:46:10;;;;;;;3.53;0.73;;;;;;;;;;5092685;28;20465;-88
2023/01/14 00:48:37;;;;;;;2.50;0.75;;;;;;;;;;5092428;28;20064;-85
2023/01/14 00:51:05;;;;;;;4.10;0.73;;;;;;;;;;5092486;28;20142;-88
2023/01/14 00:53:33;;;;;;;4.57;0.80;;;;;;;;;;5092373;28;20050;-88
2023/01/14 00:56:00;;;;;;;5.57;1.40;;;;;;;;;;5092426;28;20484;-88
2023/01/14 00:58:27;;;;;;;6.25;1.13;;;;;;;;;;5092190;28;20048;-87
2023/01/14 01:00:55;;;;;;;4.30;1.08;;;;;;;;;;5092435;28;20052;-87
2023/01/14 01:03:22;;;;;;;8.40;1.38;;;;;;;;;;5092438;28;20045;-87
2023/01/14 01:05:50;;;;;;;6.22;2.03;;;;;;;;;;5092017;28;20050;-88
2023/01/14 01:08:18;;;;;;;4.95;1.35;;;;;;;;;;5092101;28;20040;-87
2023/01/14 01:10:46;;;;;;;6.38;1.30;;;;;;;;;;5092070;28;20055;-87
2023/01/14 01:13:14;;;;;;;4.70;1.23;;;;;;;;;;5093335;28;20131;-87
2023/01/14 01:15:41;;;;;;;3.65;1.13;;;;;;;;;;5095621;28;20056;-86
2023/01/14 01:18:10;;;;;;;3.25;0.93;;;;;;;;;;5095729;28;20508;-87
2023/01/14 01:20:38;;;;;;;3.50;1.20;;;;;;;;;;5095723;28;20086;-86
2023/01/14 01:23:08;;;;;;;4.35;1.00;;;;;;;;;;5095814;28;20230;-86
2023/01/14 01:25:36;;;;;;;4.50;0.85;;;;;;;;;;5095655;28;20403;-87
2023/01/14 01:28:03;;;;;;;1.45;0.65;;;;;;;;;;5095825;28;20484;-86
2023/01/14 01:30:30;;;;;;;5.25;1.40;;;;;;;;;;5095533;28;20059;-86
2023/01/14 01:32:58;;;;;;;5.95;1.27;;;;;;;;;;5095513;28;20135;-86
2023/01/14 01:35:25;;;;;;;5.70;1.08;;;;;;;;;;5095419;28;20060;-87
2023/01/14 01:37:52;;;;;;;7.00;1.42;;;;;;;;;;5095406;28;20497;-86
2023/01/14 01:40:20;;;;;;;5.43;1.25;;;;;;;;;;5095349;28;20040;-87
2023/01/14 01:42:56;;;;;;;5.85;1.30;;;;;;;;;;5095292;28;20067;-87
2023/01/14 01:45:23;;;;;;;4.72;1.33;;;;;;;;;;5095519;28;20108;-86
2023/01/14 01:47:53;;;;;;;9.45;1.58;;;;;;;;;;5095215;28;20068;-87
2023/01/14 01:50:20;;;;;;;4.05;1.15;;;;;;;;;;5094629;28;20044;-86
2023/01/14 01:52:48;;;;;;;5.80;1.13;;;;;;;;;;5095302;28;20105;-87
2023/01/14 01:55:15;;;;;;;3.17;1.00;;;;;;;;;;5095189;28;20063;-87
2023/01/14 01:57:43;;;;;;;4.20;1.33;;;;;;;;;;5095143;28;20054;-87
2023/01/14 02:00:11;;;;;;;8.05;1.70;;;;;;;;;;5095072;28;20048;-87
2023/01/14 02:02:38;;;;;;;3.70;0.98;;;;;;;;;;5094940;28;20131;-87
2023/01/14 02:05:06;;;;;;;4.57;1.27;;;;;;;;;;5094987;28;20143;-86
2023/01/14 02:07:33;;;;;;;7.72;1.25;;;;;;;;;;5094964;28;20074;-87
2023/01/14 02:10:01;;;;;;;6.28;1.45;;;;;;;;;;5095808;28;20048;-86
2023/01/14 02:12:36;;;;;;;5.05;0.95;;;;;;;;;;5094812;28;20055;-87
2023/01/14 02:15:08;;;;;;;6.57;1.23;;;;;;;;;;5094721;28;20488;-87
2023/01/14 02:17:52;;;;;;;4.95;1.58;;;;;;;;;;5094621;28;20060;-87
2023/01/14 02:20:26;;;;;;;7.40;0.98;;;;;;;;;;5094772;28;20051;-87
2023/01/14 02:22:53;;;;;;;;;;;;;;;;;;5096294;28;20062;-87
2023/01/14 02:25:23;;;;;;;7.05;1.30;;;;;;;;;;5094064;28;19931;-86
2023/01/14 02:28:02;;;;;;;5.10;1.40;;;;;;;;;;5094368;28;20485;-87
2023/01/14 02:30:56;;;;;;;7.30;1.00;;;;;;;;;;5094286;28;20058;-86
2023/01/14 02:33:36;;;;;;;6.97;1.08;;;;;;;;;;5090782;28;20139;-86
2023/01/14 02:36:12;;;;;;;16.52;1.90;;;;;;;;;;5094268;28;20055;-87
2023/01/14 02:38:52;;;;;;;7.30;1.52;;;;;;;;;;5094368;28;20058;-89
2023/01/14 02:44:06;;;;;;;7.85;1.27;;;;;;;;;;5094061;28;20134;-87
2023/01/14 02:44:11;;;;;;;6.57;1.50;;;;;;;;;;5095561;28;20096;-87
2023/01/14 02:46:47;;;;;;;9.32;1.38;;;;;;;;;;5093994;28;20134;-87
2023/01/14 02:49:18;;;;;;;9.07;1.67;;;;;;;;;;5094203;28;20075;-86
2023/01/14 02:51:47;;;;;;;4.65;1.20;;;;;;;;;;5094416;28;20602;-87
2023/01/14 02:54:16;;;;;;;6.60;1.63;;;;;;;;;;5093850;28;20051;-87
2023/01/14 02:56:45;;;;;;;4.50;1.58;;;;;;;;;;5094320;28;20101;-87
2023/01/14 02:59:22;;;;;;;26.25;3.95;;;;;;;;;;5093949;28;20496;-87
2023/01/14 03:02:08;;;;;;;6.00;1.50;;;;;;;;;;5094067;28;20058;-87
2023/01/14 03:04:49;;;;;;;4.50;1.25;;;;;;;;;;5093804;28;20056;-87
2023/01/14 03:07:20;;;;;;;5.82;1.08;;;;;;;;;;5093364;28;20477;-87
2023/01/14 03:09:50;;;;;;;10.40;1.48;;;;;;;;;;5093543;28;20058;-87
2023/01/14 03:12:23;;;;;;;6.72;1.35;;;;;;;;;;5093721;28;20043;-87
2023/01/14 03:15:07;;;;;;;4.82;0.90;;;;;;;;;;5093453;28;20056;-86
2023/01/14 03:17:39;;;;;;;5.88;1.33;;;;;;;;;;5093183;28;20131;-86
2023/01/14 03:20:09;;;;;;;8.48;1.27;;;;;;;;;;5093457;28;20051;-87
2023/01/14 03:22:36;;;;;;;6.15;1.40;;;;;;;;;;5093610;28;20415;-86
2023/01/14 03:25:04;;;;;;;4.75;1.15;;;;;;;;;;5093361;28;20507;-87
2023/01/14 03:27:32;;;;;;;5.88;1.25;;;;;;;;;;5093200;28;20400;-87
2023/01/14 03:30:03;;;;;;;5.45;1.15;;;;;;;;;;5093107;28;20048;-87
2023/01/14 03:32:36;;;;;;;5.25;1.00;;;;;;;;;;5093385;28;20095;-86
2023/01/14 03:35:03;;;;;;;;;;;;;;;;;;5093413;28;20047;-87
2023/01/14 03:37:31;;;;;;;7.75;1.15;;;;;;;;;;5093049;28;20105;-87
2023/01/14 03:40:00;;;;;;;3.70;0.90;;;;;;;;;;5093178;28;20060;-87
2023/01/14 03:42:29;;;;;;;6.82;1.73;;;;;;;;;;5093051;28;20056;-87
2023/01/14 03:44:57;;;;;;;4.07;0.90;;;;;;;;;;5093016;28;20055;-86
2023/01/14 03:47:25;;;;;;;6.72;1.30;;;;;;;;;;5092849;28;20131;-87
2023/01/14 03:49:53;;;;;;;5.53;1.50;;;;;;;;;;5093323;28;20052;-87
2023/01/14 03:52:39;;;;;;;4.28;1.13;;;;;;;;;;5093111;28;20090;-87
2023/01/14 03:55:30;;;;;;;7.78;1.33;;;;;;;;;;5092914;28;20055;-86
2023/01/14 03:58:01;;;;;;;7.95;1.40;;;;;;;;;;5094355;28;20048;-87
2023/01/14 04:00:41;;;;;;;3.28;0.95;;;;;;;;;;5093093;28;20075;-87
2023/01/14 04:03:09;;;;;;;6.80;1.40;;;;;;;;;;5092908;28;20127;-87
2023/01/14 04:05:37;;;;;;;6.90;1.35;;;;;;;;;;5092812;28;20048;-86
2023/01/14 04:08:05;;;;;;;6.55;1.50;;;;;;;;;;5092623;28;20496;-87
2023/01/14 04:10:33;;;;;;;5.75;1.88;;;;;;;;;;5092552;28;20054;-87
2023/01/14 04:15:46;;;;;;;6.65;1.25;;;;;;;;;;5093401;28;20411;-86
2023/01/14 04:18:13;;;;;;;6.50;1.23;;;;;;;;;;5092460;28;20127;-87
2023/01/14 04:20:41;;;;;;;11.75;1.85;;;;;;;;;;5093667;28;20083;-87
2023/01/14 04:23:08;;;;;;;5.50;1.23;;;;;;;;;;5092553;28;20086;-86
2023/01/14 04:25:35;;;;;;;5.55;1.13;;;;;;;;;;5092530;28;20098;-87
2023/01/14 04:28:02;;;;;;;6.90;1.77;;;;;;;;;;5092424;28;20044;-86
2023/01/14 04:30:30;;;;;;;7.70;1.83;;;;;;;;;;5092205;28;20408;-87
2023/01/14 04:32:57;;;;;;;4.63;1.45;;;;;;;;;;5092354;28;20092;-86
2023/01/14 04:35:24;;;;;;;7.38;1.60;;;;;;;;;;5092433;28;20507;-87
2023/01/14 04:37:54;;;;;;;5.43;1.38;;;;;;;;;;5092426;28;20067;-86
2023/01/14 04:40:22;;;;;;;7.68;1.58;;;;;;;;;;5092091;28;20044;-87
2023/01/14 04:42:52;;;;;;;6.57;1.50;;;;;;;;;;5092276;28;20058;-87
2023/01/14 04:45:19;;;;;;;6.65;1.73;;;;;;;;;;5093209;28;20131;-86
2023/01/14 04:47:49;;;;;;;9.60;1.63;;;;;;;;;;5094726;28;20411;-86
2023/01/14 04:53:14;;;;;;;5.90;1.65;;;;;;;;;;5088447;28;20135;-87
2023/01/14 04:55:43;;;;;;;8.25;1.40;;;;;;;;;;5096075;28;20062;-86
2023/01/14 04:58:11;;;;;;;8.85;1.75;;;;;;;;;;5096277;28;20084;-87
2023/01/14 05:00:39;;;;;;;5.78;1.92;;;;;;;;;;5096339;28;20054;-87
2023/01/14 05:03:07;;;;;;;10.07;1.70;;;;;;;;;;5096159;28;20056;-87
2023/01/14 05:05:35;;;;;;;6.85;1.35;;;;;;;;;;5095948;28;20048;-87
2023/01/14 05:08:03;;;;;;;7.65;1.50;;;;;;;;;;5095872;28;20044;-87
2023/01/14 05:10:31;;;;;;;7.57;1.55;;;;;;;;;;5096001;28;20048;-87
2023/01/14 05:12:58;;;;;;;10.20;1.95;;;;;;;;;;5095845;28;20097;-87
2023/01/14 05:15:26;;;;;;;8.55;1.63;;;;;;;;;;5095577;28;20059;-86
2023/01/14 05:17:54;;;;;;;8.30;1.67;;;;;;;;;;5095879;28;20427;-87
2023/01/14 05:20:23;;;;;;;8.52;1.52;;;;;;;;;;5095832;28;20060;-87
2023/01/14 05:22:51;;;;;;;12.25;2.13;;;;;;;;;;5095706;28;20048;-86
2023/01/14 05:25:19;;;;;;;12.73;2.15;;;;;;;;;;5079018;28;20056;-87
2023/01/14 05:27:46;;;;;;;9.65;1.90;;;;;;;;;;5095832;28;20040;-86
2023/01/14 05:30:14;;;;;;;7.00;1.63;;;;;;;;;;5095145;28;20044;-86
2023/01/14 05:32:41;;;;;;;13.23;1.88;;;;;;;;;;5096252;28;20571;-87
2023/01/14 05:35:08;;;;;;;10.13;1.85;;;;;;;;;;5096400;28;20044;-87
2023/01/14 05:37:36;;;;;;;8.32;1.63;;;;;;;;;;5095426;28;20147;-86
2023/01/14 05:40:03;;;;;;;7.35;1.90;;;;;;;;;;5095400;28;20048;-86
2023/01/14 05:48:05;;;;;;;11.85;2.33;;;;;;;;;;5096373;28;20441;-87
2023/01/14 05:50:34;;;;;;;4.97;1.50;;;;;;;;;;5095082;28;20048;-87
2023/01/14 05:53:02;;;;;;;8.80;1.73;;;;;;;;;;5095380;28;20050;-87
2023/01/14 05:55:29;;;;;;;11.20;1.88;;;;;;;;;;5095293;28;20056;-87
2023/01/14 05:57:57;;;;;;;11.05;1.90;;;;;;;;;;5095301;28;20067;-87
2023/01/14 06:06:22;;;;;;;11.43;1.83;;;;;;;;;;5096087;28;20135;-87
2023/01/14 06:08:54;;;;;;;8.10;1.77;;;;;;;;;;5094955;28;20056;-87
2023/01/14 06:11:22;;;;;;;9.82;1.90;;;;;;;;;;5094795;28;20345;-87
2023/01/14 06:13:51;;;;;;;11.93;2.38;;;;;;;;;;5095107;28;20500;-87
2023/01/14 06:16:19;;;;;;;9.45;2.25;;;;;;;;;;5095228;28;20052;-87
2023/01/14 06:18:47;;;;;;;10.43;2.00;;;;;;;;;;5094826;28;20454;-87
2023/01/14 06:21:19;;;;;;;12.32;2.40;;;;;;;;;;5094618;28;20447;-87
2023/01/14 06:23:47;;;;;;;12.35;2.08;;;;;;;;;;5095768;28;20075;-87
2023/01/14 06:26:16;;;;;;;15.60;2.50;;;;;;;;;;5094744;28;20047;-86
2023/01/14 06:28:43;;;;;;;14.30;2.80;;;;;;;;;;5094761;28;20162;-87
2023/01/14 06:31:18;;;;;;;15.52;2.50;;;;;;;;;;5094142;28;20062;-87
2023/01/14 06:33:46;;;;;;;14.30;2.17;;;;;;;;;;5094557;28;20339;-87
2023/01/14 06:36:14;;;;;;;18.67;2.60;;;;;;;;;;5094479;28;20048;-87
2023/01/14 06:38:41;;;;;;;5.82;1.77;;;;;;;;;;5094384;28;20514;-87
2023/01/14 06:41:10;;;;;;;9.68;2.42;;;;;;;;;;5094167;28;20071;-87
2023/01/14 06:43:41;;;;;;;12.55;1.65;;;;;;;;;;5094142;28;20134;-86
2023/01/14 06:46:09;;;;;;;9.98;1.60;;;;;;;;;;5093978;28;20048;-87
2023/01/14 06:48:37;;;;;;;11.50;1.95;;;;;;;;;;5094062;28;20059;-87
2023/01/14 06:51:05;;;;;;;5.40;1.50;;;;;;;;;;5094161;28;20083;-87
2023/01/14 06:53:32;;;;;;;15.20;4.53;;;;;;;;;;5093901;28;20403;-86
2023/01/14 06:56:00;;;;;;;8.35;2.58;;;;;;;;;;5093836;28;20051;-89
2023/01/14 06:58:28;;;;;;;11.68;2.40;;;;;;;;;;5093756;28;20047;-87
2023/01/14 07:00:56;;;;;;;11.77;2.38;;;;;;;;;;5094053;28;20040;-87
2023/01/14 07:03:23;;;;;;;21.55;2.70;;;;;;;;;;5093997;28;20075;-88
2023/01/14 07:05:51;;;;;;;6.20;1.70;;;;;;;;;;5093637;28;20058;-86
2023/01/14 07:08:18;;;;;;;9.60;2.03;;;;;;;;;;5093355;28;20427;-88
2023/01/14 07:10:49;;;;;;;11.95;1.73;;;;;;;;;;5092582;28;20559;-87
2023/01/14 07:13:21;;;;;;;10.48;1.77;;;;;;;;;;5093447;28;20055;-86
2023/01/14 07:15:48;;;;;;;11.68;2.47;;;;;;;;;;5094388;28;20059;-86
2023/01/14 07:18:16;;;;;;;11.07;2.05;;;;;;;;;;5093654;28;20060;-87
2023/01/14 07:20:43;;;;;;;12.43;2.17;;;;;;;;;;5093587;28;20058;-86
2023/01/14 07:23:10;;;;;;;16.25;2.65;;;;;;;;;;5093661;28;20059;-87
2023/01/14 07:25:39;;;;;;;10.60;2.03;;;;;;;;;;5093334;28;20070;-86
2023/01/14 07:28:06;;;;;;;14.85;2.15;;;;;;;;;;5094478;28;20060;-87
2023/01/14 07:30:34;;;;;;;12.18;2.28;;;;;;;;;;5093133;28;20412;-88
2023/01/14 07:33:01;;;;;;;11.88;2.20;;;;;;;;;;5093532;28;20044;-87
2023/01/14 07:35:29;;;;;;;9.23;2.65;;;;;;;;;;5093246;28;20059;-87
2023/01/14 07:37:56;;;;;;;14.80;2.22;;;;;;;;;;5093422;28;20075;-87
2023/01/14 07:40:24;;;;;;;14.48;1.98;;;;;;;;;;5092708;28;20064;-86
2023/01/14 07:42:55;;;;;;;13.85;2.13;;;;;;;;;;5093104;28;20056;-87
2023/01/14 07:45:23;;;;;;;11.68;2.33;;;;;;;;;;5092919;28;20143;-87
2023/01/14 07:47:50;;;;;;;10.07;1.85;;;;;;;;;;5092677;28;20113;-87
2023/01/14 07:50:18;;;;;;;11.77;2.05;;;;;;;;;;5093120;28;22030;-87
2023/01/14 07:52:51;;;;;;;10.80;2.22;;;;;;;;;;5092812;28;20143;-88
2023/01/14 07:55:19;;;;;;;9.68;2.15;;;;;;;;;;5092973;28;20432;-87
2023/01/14 07:57:46;;;;;;;13.25;1.95;;;;;;;;;;5092955;28;20134;-87
2023/01/14 08:00:14;;;;;;;10.95;1.70;;;;;;;;;;5092915;28;20044;-87
2023/01/14 08:02:41;;;;;;;13.32;2.00;;;;;;;;;;5092803;28;20048;-87
2023/01/14 08:05:09;;;;;;;10.38;2.05;;;;;;;;;;5092555;28;20044;-87
2023/01/14 08:07:36;;;;;;;13.00;1.83;;;;;;;;;;5092578;28;20084;-87
2023/01/14 08:10:04;;;;;;;14.40;2.10;;;;;;;;;;5092647;28;20051;-87
2023/01/14 08:12:32;;;;;;;11.82;2.28;;;;;;;;;;5092783;28;20040;-88
2023/01/14 08:15:00;;;;;;;11.32;2.45;;;;;;;;;;5092451;28;20058;-88
2023/01/14 08:17:27;;;;;;;12.02;1.73;;;;;;;;;;5092452;28;20054;-86
2023/01/14 08:19:54;;;;;;;15.55;2.20;;;;;;;;;;5092485;28;20058;-87
2023/01/14 08:22:21;;;;;;;10.43;2.05;;;;;;;;;;5092240;28;20080;-88
2023/01/14 08:24:50;;;;;;;15.05;2.28;;;;;;;;;;5092643;28;20093;-88
2023/01/14 08:27:17;;;;;;;15.82;2.13;;;;;;;;;;5092357;28;20063;-86
2023/01/14 08:29:45;;;;;;;11.63;2.97;;;;;;;;;;5092619;28;20499;-87
2023/01/14 08:32:13;;;;;;;13.35;2.15;;;;;;;;;;5092472;28;20412;-89
2023/01/14 08:34:40;;;;;;;7.97;1.70;;;;;;;;;;5094103;28;20067;-87
2023/01/14 08:37:08;;;;;;;13.23;2.45;;;;;;;;;;5092416;28;20135;-87
2023/01/14 08:39:35;;;;;;;10.98;2.55;;;;;;;;;;5092343;28;20054;-87
2023/01/14 08:42:03;;;;;;;10.07;2.10;;;;;;;;;;5092316;28;20051;-88
2023/01/14 08:44:30;;;;;;;14.50;3.88;;;;;;;;;;5092298;28;20044;-87
2023/01/14 08:46:57;;;;;;;10.77;2.10;;;;;;;;;;5092026;28;20060;-86
2023/01/14 08:49:24;;;;;;;12.55;3.38;;;;;;;;;;5092474;28;20079;-88
2023/01/14 08:51:54;;;;;;;12.23;2.70;;;;;;;;;;5092320;28;20048;-86
2023/01/14 08:54:22;;;;;;;15.20;3.03;;;;;;;;;;5092204;28;20048;-87
2023/01/14 08:56:49;;;;;;;14.40;2.30;;;;;;;;;;5093253;28;20048;-87
2023/01/14 08:59:16;;;;;;;12.63;2.38;;;;;;;;;;5092197;28;20249;-86
2023/01/14 09:01:43;;;;;;;14.50;2.85;;;;;;;;;;5092127;28;20081;-86
2023/01/14 09:04:20;;;;;;;13.60;2.60;;;;;;;;;;5092501;28;20047;-87
2023/01/14 09:18:01;;;;;;;12.70;2.58;;;;;;;;;;5073502;28;20139;-88
2023/01/14 09:20:39;;;;;;;16.70;3.33;;;;;;;;;;5092108;28;20062;-87
2023/01/14 09:23:11;;;;;;;20.02;2.70;;;;;;;;;;5092260;28;20493;-88
2023/01/14 09:25:38;;;;;;;18.95;2.80;;;;;;;;;;5091765;28;20139;-87
2023/01/14 09:28:06;;;;;;;14.57;2.97;;;;;;;;;;5092137;28;20052;-87
2023/01/14 09:30:33;;;;;;;13.50;2.47;;;;;;;;;;5091937;28;20142;-87
2023/01/14 09:33:01;;;;;;;15.40;2.60;;;;;;;;;;5091742;28;20048;-87
2023/01/14 09:35:28;;;;;;;14.43;2.30;;;;;;;;;;5095198;28;20055;-87
2023/01/14 09:37:58;;;;;;;10.50;2.58;;;;;;;;;;5095765;28;20435;-87
2023/01/14 09:40:25;;;;;;;15.50;2.55;;;;;;;;;;5095374;28;20044;-87
2023/01/14 09:42:52;;;;;;;13.85;2.40;;;;;;;;;;5096324;28;20135;-86
2023/01/14 09:45:23;;;;;;;12.48;2.33;;;;;;;;;;5095280;28;20516;-86
2023/01/14 09:47:51;;;;;;;8.07;1.75;;;;;;;;;;5095405;28;20054;-86
2023/01/14 09:50:20;;;;;;;17.08;3.35;;;;;;;;;;5095142;28;20079;-87
2023/01/14 09:53:08;;;;;;;12.20;2.30;;;;;;;;;;5094946;28;20076;-87
2023/01/14 09:55:45;;;;;;;11.82;2.28;;;;;;;;;;5095042;28;20412;-87
2023/01/14 09:58:19;;;;;;;13.02;2.42;;;;;;;;;;5095218;28;20059;-88
2023/01/14 10:00:56;;;;;;;11.27;2.03;;;;;;;;;;5095211;28;20051;-87
2023/01/14 10:03:40;;;;;;;10.77;1.83;;;;;;;;;;5095095;28;20047;-87
2023/01/14 10:06:13;;;;;;;13.30;2.97;;;;;;;;;;5094717;28;20094;-87
2023/01/14 10:09:03;;;;;;;16.98;3.05;;;;;;;;;;5095326;28;20050;-87
2023/01/14 10:11:32;;;;;;;10.82;2.00;;;;;;;;;;5094612;28;20070;-87
2023/01/14 10:14:13;;;;;;;13.55;2.50;;;;;;;;;;5094889;28;20048;-87
2023/01/14 10:16:42;;;;;;;15.07;1.75;;;;;;;;;;5094165;28;20052;-87
2023/01/14 10:19:15;;;;;;;9.70;2.13;;;;;;;;;;5095035;28;20044;-86
2023/01/14 10:21:51;;;;;;;9.80;1.67;;;;;;;;;;5094797;28;20058;-86
2023/01/14 10:24:19;;;;;;;9.45;2.00;;;;;;;;;;5094405;28;20075;-89
2023/01/14 10:26:50;;;;;;;9.38;2.58;;;;;;;;;;5094601;28;20131;-86
2023/01/14 10:29:19;;;;;;;12.02;1.80;;;;;;;;;;5094723;28;20052;-87
2023/01/14 10:31:53;;;;;;;8.93;1.58;;;;;;;;;;5094458;28;20070;-86
2023/01/14 10:34:34;;;;;;;7.95;2.60;;;;;;;;;;5094466;28;20040;-88
2023/01/14 10:37:03;;;;;;;7.65;1.88;;;;;;;;;;5094140;28;20059;-86
2023/01/14 10:39:30;;;;;;;11.25;2.10;;;;;;;;;;5094696;28;20477;-86
2023/01/14 10:42:00;;;;;;;11.40;2.35;;;;;;;;;;5092791;28;20419;-86
2023/01/14 10:44:29;;;;;;;13.05;2.40;;;;;;;;;;5094289;28;20071;-86
2023/01/14 10:47:16;;;;;;;10.27;2.20;;;;;;;;;;5094079;28;20059;-87
2023/01/14 10:49:51;;;;;;;9.82;1.90;;;;;;;;;;5094053;28;20082;-87
2023/01/14 10:52:26;;;;;;;10.55;2.47;;;;;;;;;;5093832;28;20515;-86
2023/01/14 10:54:58;;;;;;;6.15;1.63;;;;;;;;;;5093996;28;20071;-88
2023/01/14 10:57:26;;;;;;;10.80;1.60;;;;;;;;;;5094144;28;20063;-86
2023/01/14 10:59:56;;;;;;;15.10;2.30;;;;;;;;;;5094023;28;20065;-86
2023/01/14 11:02:27;;;;;;;13.20;2.28;;;;;;;;;;5093769;28;20082;-87
2023/01/14 11:04:54;;;;;;;13.05;2.00;;;;;;;;;;5093776;28;20134;-86
2023/01/14 11:07:25;;;;;;;7.10;1.50;;;;;;;;;;5093632;28;20127;-87
2023/01/14 11:09:53;;;;;;;7.88;1.65;;;;;;;;;;5093917;28;20054;-87
2023/01/14 11:12:31;;;;;;;7.03;1.42;;;;;;;;;;5093326;28;20078;-87
2023/01/14 11:14:59;;;;;;;9.95;2.08;;;;;;;;;;5093467;28;20415;-87
2023/01/14 11:17:29;;;;;;;8.55;1.90;;;;;;;;;;5094628;28;20058;-87
2023/01/14 11:20:15;;;;;;;6.63;1.90;;;;;;;;;;5093561;28;20131;-86
2023/01/14 11:22:43;;;;;;;12.32;2.40;;;;;;;;;;5093411;28;20143;-88
2023/01/14 11:25:21;;;;;;;13.15;2.75;;;;;;;;;;5093404;28;20075;-87
2023/01/14 11:27:49;;;;;;;10.38;1.83;;;;;;;;;;5093717;28;20086;-86
2023/01/14 11:30:20;;;;;;;6.22;1.52;;;;;;;;;;5093310;28;20123;-87
2023/01/14 11:32:49;;;;;;;8.52;1.50;;;;;;;;;;5093261;28;20435;-88
2023/01/14 11:35:23;;;;;;;10.00;1.88;;;;;;;;;;5093000;28;20048;-86
2023/01/14 11:37:54;;;;;;;9.50;2.50;;;;;;;;;;5093017;28;20587;-86
2023/01/14 11:40:22;;;;;;;11.02;2.28;;;;;;;;;;5093209;28;20568;-87
2023/01/14 11:42:50;;;;;;;10.82;2.25;;;;;;;;;;5093176;28;20408;-87
2023/01/14 11:45:18;;;;;;;10.93;2.10;;;;;;;;;;5092906;28;20055;-86
2023/01/14 11:47:53;;;;;;;12.23;1.73;;;;;;;;;;5093159;28;20067;-87
2023/01/14 11:50:26;;;;;;;5.97;1.52;;;;;;;;;;5093022;28;20139;-87
2023/01/14 11:52:59;;;;;;;9.70;2.00;;;;;;;;;;5092865;28;20052;-87
2023/01/14 11:55:28;;;;;;;6.40;1.30;;;;;;;;;;5092767;28;20044;-87
2023/01/14 11:58:00;;;;;;;10.82;1.73;;;;;;;;;;5092374;28;20502;-88
2023/01/14 12:00:41;;;;;;;6.45;1.52;;;;;;;;;;5092934;28;20044;-87
2023/01/14 12:03:24;;;;;;;6.63;1.50;;;;;;;;;;5092965;28;20056;-88
2023/01/14 12:05:53;;;;;;;10.63;2.17;;;;;;;;;;5093959;28;20056;-87
2023/01/14 12:08:22;;;;;;;10.75;2.63;;;;;;;;;;5092677;28;20048;-88
2023/01/14 12:10:51;;;;;;;13.50;1.88;;;;;;;;;;5092776;28;20052;-87
2023/01/14 12:19:11;;;;;;;9.13;2.05;;;;;;;;;;5093929;28;20056;-88
2023/01/14 12:21:49;;;;;;;10.23;2.40;;;;;;;;;;5092864;28;20487;-87
2023/01/14 12:24:26;;;;;;;11.68;2.42;;;;;;;;;;5093059;28;20047;-87
2023/01/14 12:26:55;;;;;;;6.13;1.73;;;;;;;;;;5092694;28;20139;-89
2023/01/14 12:29:28;;;;;;;9.32;2.47;;;;;;;;;;5092763;28;20074;-88
2023/01/14 12:32:02;;;;;;;8.18;2.13;;;;;;;;;;5092642;28;20040;-86
2023/01/14 12:34:29;;;;;;;7.95;1.67;;;;;;;;;;5076374;28;20047;-87
2023/01/14 12:37:00;;;;;;;5.88;1.35;;;;;;;;;;5092652;28;20389;-87
2023/01/14 12:48:09;;;;;;;6.00;1.48;;;;;;;;;;5093574;28;20048;-87
2023/01/14 12:50:41;;;;;;;9.70;2.10;;;;;;;;;;5092420;28;20086;-87
2023/01/14 12:53:16;;;;;;;9.98;1.80;;;;;;;;;;5092358;28;20052;-87
2023/01/14 12:55:45;;;;;;;7.05;1.40;;;;;;;;;;5092475;28;20048;-88
2023/01/14 12:58:20;;;;;;;5.55;1.83;;;;;;;;;;5092660;28;20069;-87
2023/01/14 13:00:55;;;;;;;8.32;2.10;;;;;;;;;;5092465;28;20052;-87
2023/01/14 13:03:25;;;;;;;7.03;1.65;;;;;;;;;;5092400;28;20044;-87
2023/01/14 13:05:53;;;;;;;11.13;2.67;;;;;;;;;;5092466;28;20052;-87
2023/01/14 13:08:24;;;;;;;6.07;1.67;;;;;;;;;;5094057;28;20059;-86
2023/01/14 13:11:06;;;;;;;7.10;1.67;;;;;;;;;;5096187;28;20537;-88
2023/01/14 13:13:34;;;;;;;10.65;2.42;;;;;;;;;;5095830;28;20054;-87
2023/01/14 13:16:02;;;;;;;8.95;1.60;;;;;;;;;;5095473;28;20048;-88
2023/01/14 13:18:36;;;;;;;4.93;1.48;;;;;;;;;;5096019;28;20488;-87
2023/01/14 13:21:03;;;;;;;;;;;;;;;;;;5096257;28;20048;-87
2023/01/14 13:23:37;;;;;;;6.47;1.60;;;;;;;;;;5096029;28;20366;-87
2023/01/14 13:26:04;;;;;;;;;;;;;;;;;;5096162;28;20044;-87
2023/01/14 13:28:32;;;;;;;6.50;1.88;;;;;;;;;;5095928;28;20006;-87
2023/01/14 13:31:01;;;;;;;6.70;2.10;;;;;;;;;;5095622;28;20164;-88
2023/01/14 13:33:33;;;;;;;2.63;1.00;;;;;;;;;;5095458;28;20087;-87
2023/01/14 13:36:08;;;;;;;3.88;1.00;;;;;;;;;;5095494;28;20136;-87
2023/01/14 13:38:54;;;;;;;4.50;1.00;;;;;;;;;;5095461;28;20048;-88
2023/01/14 13:41:38;;;;;;;5.03;1.25;;;;;;;;;;5095544;28;20054;-87
2023/01/14 13:44:06;;;;;;;2.30;0.98;;;;;;;;;;5095662;28;20077;-87
2023/01/14 13:46:38;;;;;;;3.60;1.10;;;;;;;;;;5095327;28;20126;-87
2023/01/14 13:49:07;;;;;;;8.60;1.85;;;;;;;;;;5095095;28;20044;-88
2023/01/14 13:51:41;;;;;;;5.78;1.30;;;;;;;;;;5095428;28;20052;-87
2023/01/14 13:54:08;;;;;;;;;;;;;;;;;;5095865;28;20553;-88
2023/01/14 13:56:46;;;;;;;4.68;1.20;;;;;;;;;;5095230;28;19969;-88
2023/01/14 13:59:16;;;;;;;3.42;1.05;;;;;;;;;;5095438;28;20055;-86
2023/01/14 14:01:47;;;;;;;3.58;0.70;;;;;;;;;;5095092;28;20072;-88
2023/01/14 14:04:34;;;;;;;5.00;1.00;;;;;;;;;;5095194;28;20511;-87
2023/01/14 14:07:01;;;;;;;10.85;2.17;;;;;;;;;;5094719;28;20044;-88
2023/01/14 14:09:33;;;;;;;8.63;1.50;;;;;;;;;;5095098;28;20067;-87
2023/01/14 14:15:15;;;;;;;5.15;1.23;;;;;;;;;;5095907;28;20136;-87
2023/01/14 14:17:43;;;;;;;6.82;1.00;;;;;;;;;;5094732;28;20040;-87
2023/01/14 14:20:15;;;;;;;4.97;0.90;;;;;;;;;;5094143;28;20571;-88
2023/01/14 14:22:53;;;;;;;3.35;0.90;;;;;;;;;;5094701;28;20510;-87
2023/01/14 14:25:22;;;;;;;4.90;0.73;;;;;;;;;;5094579;28;20509;-87
2023/01/14 14:27:51;;;;;;;4.13;0.80;;;;;;;;;;5095729;28;20053;-88
2023/01/14 14:30:21;;;;;;;7.75;1.75;;;;;;;;;;5094511;28;20133;-87
2023/01/14 14:33:00;;;;;;;1.88;1.00;;;;;;;;;;5094774;28;20060;-86
2023/01/14 14:35:28;;;;;;;5.75;1.17;;;;;;;;;;5094326;28;20051;-88
2023/01/14 14:37:56;;;;;;;3.15;1.00;;;;;;;;;;5094425;28;20055;-89
2023/01/14 14:40:38;;;;;;;2.75;0.90;;;;;;;;;;5095062;28;20040;-87
2023/01/14 14:43:05;;;;;;;2.80;0.80;;;;;;;;;;5094290;28;20066;-87
2023/01/14 14:45:34;;;;;;;2.47;0.90;;;;;;;;;;5094232;28;20519;-87
2023/01/14 14:48:02;;;;;;;1.45;0.80;;;;;;;;;;5094353;28;20044;-88
2023/01/14 14:50:34;;;;;;;3.97;1.20;;;;;;;;;;5094132;28;20051;-88
2023/01/14 14:53:01;;;;;;;4.97;1.15;;;;;;;;;;5093944;28;20074;-88
2023/01/14 14:55:32;;;;;;;3.90;1.05;;;;;;;;;;5094430;28;20409;-88
2023/01/14 14:58:02;;;;;;;3.22;1.20;;;;;;;;;;5094960;28;20163;-88
2023/01/14 15:00:29;;;;;;;2.28;0.90;;;;;;;;;;5095086;28;20048;-88
2023/01/14 15:02:58;;;;;;;5.70;1.20;;;;;;;;;;5094161;28;20048;-88
2023/01/14 15:05:33;;;;;;;4.82;0.88;;;;;;;;;;5094006;28;20048;-88
2023/01/14 15:08:08;;;;;;;3.60;1.00;;;;;;;;;;5093998;28;20050;-88
2023/01/14 15:10:37;;;;;;;5.28;1.40;;;;;;;;;;5093903;28;20059;-88
2023/01/14 15:13:10;;;;;;;1.50;0.93;;;;;;;;;;5093836;28;20059;-86
2023/01/14 15:15:37;;;;;;;4.15;1.10;;;;;;;;;;5093638;28;20559;-86
2023/01/14 15:18:07;;;;;;;4.72;1.08;;;;;;;;;;5093568;28;20047;-87
2023/01/14 15:20:36;;;;;;;3.85;1.15;;;;;;;;;;5093757;28;20063;-87
2023/01/14 15:23:04;;;;;;;3.92;1.10;;;;;;;;;;5093735;28;20052;-87
2023/01/14 15:25:31;;;;;;;3.60;1.17;;;;;;;;;;5093358;28;20482;-87
2023/01/14 15:27:58;;;;;;;3.47;0.95;;;;;;;;;;5093636;28;20051;-87
2023/01/14 15:30:31;;;;;;;4.00;1.13;;;;;;;;;;5093362;28;20044;-86
2023/01/14 15:32:59;;;;;;;;;;;;;;;;;;5092909;28;20139;-88
2023/01/14 15:35:33;;;;;;;1.95;0.90;;;;;;;;;;5093475;28;19920;-87
2023/01/14 15:38:01;;;;;;;4.07;0.93;;;;;;;;;;5093369;28;20048;-87
2023/01/14 15:40:42;;;;;;;2.97;1.00;;;;;;;;;;5093365;28;20071;-87
2023/01/14 15:43:28;;;;;;;4.07;1.33;;;;;;;;;;5094573;28;20056;-87
2023/01/14 15:45:57;;;;;;;5.15;1.50;;;;;;;;;;5093063;28;20060;-87